createdAt,value
2022-12-22T00:07:23.871Z,42.22
2022-12-22T00:10:52.901Z,40.53
2022-12-22T00:13:49.741Z,34.80
2022-12-22T00:16:50.536Z,35.78
2022-12-22T00:20:18.302Z,40.15
2022-12-22T00:23:34.667Z,39.38
2022-12-22T00:26:39.209Z,38.22
2022-12-22T00:29:40.454Z,35.92
2022-12-22T00:32:36.565Z,34.50
2022-12-22T00:35:36.444Z,37.08
2022-12-22T00:38:42.655Z,34.58
2022-12-22T00:41:44.541Z,33.78
2022-12-22T00:44:55.399Z,36.80
2022-12-22T00:48:12.635Z,34.88
2022-12-22T01:00:10.779Z,35.28
2022-12-22T01:03:34.231Z,33.40
2022-12-22T01:06:22.047Z,35.50
2022-12-22T01:09:20.666Z,34.10
2022-12-22T01:12:12.807Z,32.42
2022-12-22T01:15:43.764Z,34.70
2022-12-22T01:18:39.677Z,32.38
2022-12-22T01:21:46.261Z,30.70
2022-12-22T01:25:06.964Z,34.00
2022-12-22T01:28:45.461Z,27.38
2022-12-22T01:32:04.029Z,30.60
2022-12-22T01:35:30.705Z,32.85
2022-12-22T01:38:53.888Z,31.20
2022-12-22T01:42:08.426Z,31.67
2022-12-22T01:46:46.927Z,24.67
2022-12-22T01:50:06.434Z,28.45
2022-12-22T01:53:19.751Z,31.08
2022-12-22T01:56:54.427Z,36.17
2022-12-22T02:00:09.286Z,31.55
2022-12-22T02:03:42.959Z,27.88
2022-12-22T02:07:03.263Z,28.00
2022-12-22T02:10:41.669Z,29.52
2022-12-22T02:13:59.193Z,31.05
2022-12-22T02:21:02.838Z,28.65
2022-12-22T02:24:16.930Z,31.65
2022-12-22T02:27:13.345Z,27.77
2022-12-22T02:30:19.637Z,35.15
2022-12-22T02:33:10.336Z,30.65
2022-12-22T02:36:17.121Z,32.33
2022-12-22T02:39:12.676Z,36.67
2022-12-22T02:42:18.493Z,33.70
2022-12-22T02:48:50.506Z,30.98
2022-12-22T02:51:49.294Z,35.30
2022-12-22T02:55:03.718Z,30.90
2022-12-22T02:58:01.643Z,25.60
2022-12-22T03:01:04.199Z,34.03
2022-12-22T03:07:54.093Z,32.88
2022-12-22T03:11:26.354Z,30.60
2022-12-22T03:14:32.623Z,30.77
2022-12-22T03:18:01.779Z,31.35
2022-12-22T03:24:57.068Z,30.08
2022-12-22T03:27:59.325Z,28.38
2022-12-22T03:30:42.919Z,26.70
2022-12-22T03:33:34.943Z,29.92
2022-12-22T03:36:26.683Z,27.13
2022-12-22T03:39:36.674Z,30.13
2022-12-22T03:42:51.491Z,42.47
2022-12-22T03:45:45.533Z,31.02
2022-12-22T03:48:41.309Z,33.92
2022-12-22T03:52:11.370Z,34.67
2022-12-22T03:55:08.877Z,34.60
2022-12-22T03:58:33.043Z,36.08
2022-12-22T04:01:29.059Z,41.03
2022-12-22T04:04:32.967Z,53.30
2022-12-22T04:07:15.343Z,46.42
2022-12-22T04:10:20.083Z,39.22
2022-12-22T04:13:11.962Z,40.83
2022-12-22T04:16:18.917Z,46.97
2022-12-22T04:19:05.851Z,44.78
2022-12-22T04:21:55.433Z,44.75
2022-12-22T04:24:30.503Z,41.47
2022-12-22T04:27:09.959Z,49.15
2022-12-22T04:29:53.627Z,50.58
2022-12-22T04:32:53.570Z,59.95
2022-12-22T04:35:46.359Z,52.00
2022-12-22T04:38:43.414Z,59.20
2022-12-22T04:41:41.144Z,45.53
2022-12-22T04:44:28.393Z,42.20
2022-12-22T04:47:12.306Z,41.63
2022-12-22T04:49:58.595Z,34.67
2022-12-22T04:53:04.250Z,42.33
2022-12-22T04:56:20.718Z,40.33
2022-12-22T04:58:59.459Z,50.38
2022-12-22T05:01:53.457Z,43.67
2022-12-22T05:04:40.994Z,47.80
2022-12-22T05:07:43.028Z,37.60
2022-12-22T05:10:52.999Z,42.10
2022-12-22T05:14:00.832Z,34.45
2022-12-22T05:16:43.857Z,37.33
2022-12-22T05:19:29.116Z,32.47
2022-12-22T05:22:05.518Z,37.08
2022-12-22T05:24:55.750Z,26.60
2022-12-22T05:27:32.600Z,37.67
2022-12-22T05:30:19.025Z,28.52
2022-12-22T05:33:07.863Z,33.17
2022-12-22T05:35:46.272Z,32.40
2022-12-22T05:38:23.905Z,37.97
2022-12-22T05:41:34.195Z,31.77
2022-12-22T05:44:24.206Z,34.13
2022-12-22T05:47:07.034Z,31.38
2022-12-22T05:49:56.164Z,30.75
2022-12-22T05:52:45.975Z,36.45
2022-12-22T05:55:26.805Z,33.65
2022-12-22T05:58:22.108Z,33.72
2022-12-22T06:01:01.814Z,32.03
2022-12-22T06:04:00.648Z,35.20
2022-12-22T06:06:49.927Z,39.50
2022-12-22T06:10:02.685Z,42.05
2022-12-22T06:13:00.873Z,38.05
2022-12-22T06:15:57.681Z,37.72
2022-12-22T06:18:50.334Z,32.95
2022-12-22T06:21:56.599Z,33.88
2022-12-22T06:24:48.970Z,36.35
2022-12-22T06:27:51.031Z,33.75
2022-12-22T06:33:48.053Z,39.80
2022-12-22T06:36:37.800Z,38.33
2022-12-22T06:39:48.393Z,34.30
2022-12-22T06:42:49.141Z,29.20
2022-12-22T06:45:30.432Z,34.28
2022-12-22T06:48:06.544Z,26.00
2022-12-22T06:50:39.945Z,30.23
2022-12-22T06:53:25.627Z,22.98
2022-12-22T06:56:02.998Z,24.75
2022-12-22T06:58:50.866Z,23.25
2022-12-22T07:01:27.740Z,23.42
2022-12-22T07:04:06.545Z,24.30
2022-12-22T07:06:55.344Z,23.55
2022-12-22T07:10:21.652Z,22.35
2022-12-22T07:12:54.157Z,21.02
2022-12-22T07:15:45.828Z,20.73
2022-12-22T07:18:59.719Z,18.90
2022-12-22T07:25:13.456Z,17.60
2022-12-22T07:28:05.645Z,23.13
2022-12-22T07:30:41.982Z,20.77
2022-12-22T07:33:20.582Z,18.80
2022-12-22T07:36:13.279Z,21.52
2022-12-22T07:39:03.919Z,22.30
2022-12-22T07:42:03.855Z,26.40
2022-12-22T07:44:48.975Z,22.80
2022-12-22T07:48:07.329Z,25.15
2022-12-22T07:50:42.214Z,27.10
2022-12-22T07:53:33.065Z,22.70
2022-12-22T07:59:53.079Z,20.45
2022-12-22T08:02:33.888Z,23.90
2022-12-22T08:05:07.590Z,25.10
2022-12-22T08:07:35.898Z,22.85
2022-12-22T08:10:03.821Z,22.02
2022-12-22T08:12:32.827Z,26.95
2022-12-22T08:15:00.794Z,18.73
2022-12-22T08:17:29.157Z,19.63
2022-12-22T08:19:56.846Z,19.05
2022-12-22T08:22:25.073Z,18.50
2022-12-22T08:24:54.529Z,16.05
2022-12-22T08:27:43.127Z,17.30
2022-12-22T08:30:12.568Z,16.02
2022-12-22T08:32:41.349Z,18.33
2022-12-22T08:35:10.008Z,18.42
2022-12-22T08:37:42.342Z,16.75
2022-12-22T08:40:22.921Z,16.55
2022-12-22T08:42:59.320Z,14.50
2022-12-22T08:45:27.193Z,19.20
2022-12-22T08:47:55.023Z,17.95
2022-12-22T08:50:23.440Z,18.63
2022-12-22T08:52:51.475Z,21.13
2022-12-22T08:55:19.333Z,18.80
2022-12-22T08:57:55.897Z,18.85
2022-12-22T09:00:24.915Z,18.70
2022-12-22T09:02:56.323Z,23.00
2022-12-22T09:05:26.920Z,19.95
2022-12-22T09:07:55.733Z,23.52
2022-12-22T09:10:30.512Z,24.00
2022-12-22T09:13:06.811Z,18.92
2022-12-22T09:15:37.803Z,21.75
2022-12-22T09:18:05.601Z,20.58
2022-12-22T09:20:33.336Z,14.45
2022-12-22T09:23:01.196Z,13.27
2022-12-22T09:25:29.056Z,17.17
2022-12-22T09:27:56.742Z,24.17
2022-12-22T09:30:25.052Z,14.13
2022-12-22T09:32:55.360Z,14.45
2022-12-22T09:35:23.099Z,19.08
2022-12-22T09:37:52.077Z,17.77
2022-12-22T09:40:21.935Z,16.70
2022-12-22T09:42:49.749Z,23.83
2022-12-22T09:45:22.175Z,16.15
2022-12-22T09:47:54.035Z,18.55
2022-12-22T09:50:27.489Z,18.48
2022-12-22T09:53:01.498Z,17.15
2022-12-22T09:55:40.018Z,21.23
2022-12-22T09:58:29.695Z,20.95
2022-12-22T10:01:06.191Z,23.60
2022-12-22T10:04:03.772Z,19.40
2022-12-22T10:06:55.443Z,18.33
2022-12-22T10:09:49.629Z,18.77
2022-12-22T10:12:25.036Z,18.13
2022-12-22T10:14:55.571Z,17.27
2022-12-22T10:17:24.011Z,16.90
2022-12-22T10:19:54.372Z,21.77
2022-12-22T10:22:33.766Z,17.88
2022-12-22T10:25:03.875Z,15.65
2022-12-22T10:27:38.594Z,13.75
2022-12-22T10:30:31.629Z,16.77
2022-12-22T10:33:05.383Z,13.05
2022-12-22T10:35:58.287Z,16.58
2022-12-22T10:38:30.877Z,14.48
2022-12-22T10:41:03.355Z,13.52
2022-12-22T10:43:37.508Z,20.33
2022-12-22T10:46:07.716Z,19.42
2022-12-22T10:48:38.615Z,23.80
2022-12-22T10:51:09.118Z,22.92
2022-12-22T10:56:58.638Z,25.90
2022-12-22T10:59:52.312Z,20.33
2022-12-22T11:02:39.643Z,30.63
2022-12-22T11:05:20.228Z,29.05
2022-12-22T11:08:51.562Z,34.10
2022-12-22T11:17:07.319Z,29.92
2022-12-22T11:20:45.813Z,36.30
2022-12-22T11:24:05.689Z,30.10
2022-12-22T11:26:57.590Z,33.15
2022-12-22T11:29:28.220Z,33.28
2022-12-22T11:34:52.210Z,20.58
2022-12-22T11:37:48.623Z,23.00
2022-12-22T11:40:37.369Z,21.80
2022-12-22T11:43:17.373Z,23.35
2022-12-22T11:46:14.762Z,34.33
2022-12-22T11:49:14.171Z,23.70
2022-12-22T11:51:59.728Z,17.45
2022-12-22T11:54:59.976Z,24.65
2022-12-22T11:57:48.949Z,26.67
2022-12-22T12:00:18.570Z,17.60
2022-12-22T12:02:58.698Z,17.63
2022-12-22T12:05:38.546Z,23.00
2022-12-22T12:08:43.967Z,14.48
2022-12-22T12:11:32.178Z,20.63
2022-12-22T12:14:45.857Z,14.65
2022-12-22T12:17:36.091Z,19.05
2022-12-22T12:20:15.890Z,17.23
2022-12-22T12:23:05.730Z,22.05
2022-12-22T12:26:00.420Z,20.17
2022-12-22T12:29:11.353Z,21.20
2022-12-22T12:34:16.171Z,21.17
2022-12-22T12:37:07.234Z,19.75
2022-12-22T12:39:42.525Z,15.25
2022-12-22T12:42:37.905Z,16.52
2022-12-22T12:45:37.840Z,26.92
2022-12-22T12:48:24.627Z,18.87
2022-12-22T12:50:57.453Z,22.37
2022-12-22T12:53:27.107Z,15.83
2022-12-22T12:56:14.772Z,19.60
2022-12-22T12:58:43.533Z,18.73
2022-12-22T13:01:13.796Z,24.17
2022-12-22T13:06:49.789Z,26.17
2022-12-22T13:09:49.951Z,23.52
2022-12-22T13:12:51.354Z,20.73
2022-12-22T13:15:36.021Z,25.75
2022-12-22T13:18:31.836Z,26.42
2022-12-22T13:21:50.971Z,27.48
2022-12-22T13:24:30.219Z,24.52
2022-12-22T13:27:09.164Z,21.63
2022-12-22T13:29:48.247Z,29.25
2022-12-22T13:32:34.074Z,19.05
2022-12-22T13:35:32.071Z,20.10
2022-12-22T13:38:11.296Z,19.02
2022-12-22T13:40:46.223Z,23.67
2022-12-22T13:43:16.867Z,23.38
2022-12-22T13:45:58.260Z,22.58
2022-12-22T13:48:44.554Z,25.30
2022-12-22T13:51:25.498Z,32.47
2022-12-22T13:54:10.640Z,19.00
2022-12-22T13:56:51.518Z,20.73
2022-12-22T13:59:46.715Z,26.48
2022-12-22T14:02:19.161Z,28.90
2022-12-22T14:05:11.816Z,28.98
2022-12-22T14:07:40.136Z,21.98
2022-12-22T14:10:10.834Z,28.05
2022-12-22T14:12:46.559Z,21.58
2022-12-22T14:15:28.620Z,22.80
2022-12-22T14:18:27.852Z,28.38
2022-12-22T14:20:56.995Z,18.98
2022-12-22T14:23:41.144Z,22.13
2022-12-22T14:26:23.177Z,26.75
2022-12-22T14:28:58.339Z,25.40
2022-12-22T14:36:41.890Z,16.75
2022-12-22T14:39:10.842Z,22.90
2022-12-22T14:42:18.838Z,24.00
2022-12-22T14:44:51.718Z,23.92
2022-12-22T14:47:30.131Z,28.85
2022-12-22T14:55:45.388Z,23.50
2022-12-22T14:58:55.038Z,19.23
2022-12-22T15:01:38.023Z,26.30
2022-12-22T15:04:30.824Z,24.52
2022-12-22T15:07:54.321Z,21.80
2022-12-22T15:10:16.107Z,23.48
2022-12-22T15:12:50.732Z,23.73
2022-12-22T15:15:22.297Z,26.42
2022-12-22T15:17:53.037Z,23.35
2022-12-22T15:20:39.591Z,16.67
2022-12-22T15:23:14.509Z,19.92
2022-12-22T15:25:48.940Z,21.70
2022-12-22T15:28:16.894Z,16.63
2022-12-22T15:30:44.865Z,18.65
2022-12-22T15:33:16.074Z,20.83
2022-12-22T15:35:45.056Z,22.00
2022-12-22T15:38:19.031Z,22.98
2022-12-22T15:40:50.828Z,22.05
2022-12-22T15:46:15.923Z,21.70
2022-12-22T15:48:45.401Z,17.98
2022-12-22T16:27:57.629Z,27.83
2022-12-22T16:31:24.576Z,30.08
2022-12-22T16:34:59.310Z,33.88
2022-12-22T16:39:14.077Z,36.08
2022-12-22T16:51:17.832Z,37.67
2022-12-22T17:45:42.876Z,45.13
2022-12-22T17:48:11.443Z,51.40
2022-12-22T17:50:39.853Z,46.97
2022-12-22T17:53:18.248Z,35.78
2022-12-22T17:56:07.696Z,48.03
2022-12-22T17:58:37.991Z,33.53
2022-12-22T18:01:06.196Z,38.85
2022-12-22T18:03:34.269Z,40.13
2022-12-22T18:06:03.589Z,39.17
2022-12-22T18:08:31.411Z,44.10
2022-12-22T18:11:02.613Z,49.45
2022-12-22T18:13:30.581Z,48.55
2022-12-22T18:15:58.999Z,33.85
2022-12-22T18:18:27.521Z,38.28
2022-12-22T18:21:06.676Z,46.05
2022-12-22T18:23:38.030Z,43.40
2022-12-22T18:26:12.533Z,56.97
2022-12-22T18:28:41.221Z,36.08
2022-12-22T18:31:11.106Z,44.42
2022-12-22T18:33:39.312Z,33.83
2022-12-22T18:36:11.058Z,29.52
2022-12-22T18:38:39.141Z,41.65
2022-12-22T18:41:12.012Z,35.08
2022-12-22T18:43:42.855Z,45.17
2022-12-22T18:46:14.414Z,42.70
2022-12-22T18:48:46.477Z,30.17
2022-12-22T18:51:39.185Z,34.15
2022-12-22T18:54:32.492Z,39.13
2022-12-22T18:57:00.446Z,31.90
2022-12-22T18:59:30.093Z,39.13
2022-12-22T19:02:25.802Z,25.00
2022-12-22T19:04:55.089Z,42.70
2022-12-22T19:07:26.298Z,35.95
2022-12-22T19:09:55.668Z,27.75
2022-12-22T19:12:50.665Z,30.00
2022-12-22T19:15:32.631Z,38.83
2022-12-22T19:18:28.319Z,30.83
2022-12-22T19:20:59.479Z,28.15
2022-12-22T19:23:32.709Z,27.00
2022-12-22T19:26:08.330Z,27.42
2022-12-22T19:28:43.999Z,29.88
2022-12-22T19:31:33.641Z,31.38
2022-12-22T19:34:05.392Z,32.83
2022-12-22T19:36:36.583Z,29.33
2022-12-22T19:39:06.086Z,30.92
2022-12-22T19:41:47.484Z,26.90
2022-12-22T19:44:26.387Z,29.48
2022-12-22T19:46:59.418Z,37.22
2022-12-22T19:49:42.647Z,30.40
2022-12-22T19:52:11.283Z,29.40
2022-12-22T19:54:39.306Z,24.80
2022-12-22T19:57:30.356Z,30.92
2022-12-22T20:00:26.123Z,30.55
2022-12-22T20:05:42.232Z,31.13
2022-12-22T20:11:19.734Z,30.08
2022-12-22T20:13:55.012Z,31.30
2022-12-22T20:16:34.690Z,27.80
2022-12-22T20:19:06.152Z,37.10
2022-12-22T20:21:42.240Z,35.00
2022-12-22T20:24:23.212Z,27.95
2022-12-22T20:26:54.941Z,26.58
2022-12-22T20:29:29.387Z,28.17
2022-12-22T20:31:58.063Z,24.02
2022-12-22T20:34:34.940Z,27.00
2022-12-22T20:37:09.637Z,31.42
2022-12-22T20:39:43.673Z,20.58
2022-12-22T20:42:27.005Z,26.85
2022-12-22T20:45:02.333Z,29.10
2022-12-22T20:47:34.289Z,22.90
2022-12-22T20:50:26.859Z,15.88
2022-12-22T20:52:57.700Z,19.40
2022-12-22T20:55:38.886Z,20.02
2022-12-22T20:58:24.514Z,20.83
2022-12-22T21:00:57.361Z,14.10
2022-12-22T21:03:32.976Z,18.27
2022-12-22T21:06:01.317Z,21.65
2022-12-22T21:08:29.227Z,18.58
2022-12-22T21:11:00.260Z,19.88
2022-12-22T21:13:28.387Z,22.00
2022-12-22T21:15:56.646Z,15.73
2022-12-22T21:18:24.953Z,18.90
2022-12-22T21:20:55.782Z,11.85
2022-12-22T21:23:24.961Z,11.95
2022-12-22T21:26:00.299Z,14.13
2022-12-22T21:28:34.580Z,10.70
2022-12-22T21:31:05.964Z,9.38
2022-12-22T21:39:39.550Z,8.55
2022-12-22T21:42:15.185Z,13.43
2022-12-22T21:44:44.764Z,13.60
2022-12-22T21:47:14.284Z,17.42
2022-12-22T21:49:42.337Z,11.00
2022-12-22T21:52:12.504Z,16.00
2022-12-22T21:54:42.664Z,10.75
2022-12-22T21:57:16.937Z,11.45
2022-12-22T21:59:46.009Z,10.82
2022-12-22T22:02:24.775Z,11.50
2022-12-22T22:04:58.649Z,10.40
2022-12-22T22:07:26.751Z,4.93
2022-12-22T22:10:12.522Z,6.38
2022-12-22T22:12:49.790Z,5.63
2022-12-22T22:15:31.861Z,6.80
2022-12-22T22:18:06.879Z,8.15
2022-12-22T22:20:35.402Z,3.67
2022-12-22T22:23:03.503Z,5.55
2022-12-22T22:25:33.871Z,4.82
2022-12-22T22:28:04.978Z,8.07
2022-12-22T22:30:32.768Z,4.35
2022-12-22T22:33:02.110Z,5.45
2022-12-22T22:35:30.002Z,7.75
2022-12-22T22:37:57.961Z,7.75
2022-12-22T22:40:25.818Z,5.18
2022-12-22T22:42:53.662Z,5.82
2022-12-22T22:45:24.332Z,3.42
2022-12-22T22:47:53.010Z,6.82
2022-12-22T22:50:22.032Z,5.15
2022-12-22T22:52:49.847Z,4.22
2022-12-22T22:55:17.715Z,4.38
2022-12-22T22:57:45.646Z,4.18
2022-12-22T23:00:15.894Z,4.90
2022-12-22T23:02:44.588Z,5.45
2022-12-22T23:05:18.567Z,4.60
2022-12-22T23:07:54.969Z,3.83
2022-12-22T23:10:23.042Z,3.92
2022-12-22T23:12:51.945Z,3.13
2022-12-22T23:15:23.345Z,4.82
2022-12-22T23:17:54.445Z,6.57
2022-12-22T23:20:22.372Z,7.70
2022-12-22T23:25:49.716Z,6.25
2022-12-22T23:28:20.570Z,4.38
2022-12-22T23:30:51.578Z,5.43
2022-12-22T23:33:20.773Z,6.05
2022-12-22T23:35:50.391Z,6.07
2022-12-22T23:38:23.943Z,2.42
2022-12-22T23:41:05.125Z,3.42
2022-12-22T23:43:33.875Z,4.70
2022-12-22T23:46:09.520Z,5.13
2022-12-22T23:48:38.069Z,7.28
2022-12-22T23:51:06.906Z,5.38
2022-12-22T23:53:35.879Z,6.40
2022-12-22T23:56:04.387Z,8.13
2022-12-22T23:58:32.408Z,4.57
